createdAt,value
2022-10-18T00:01:04.275Z,17.13
2022-10-18T00:03:32.851Z,17.57
2022-10-18T00:06:01.258Z,17.90
2022-10-18T00:08:29.829Z,17.80
2022-10-18T00:10:57.955Z,16.77
2022-10-18T00:13:26.069Z,17.10
2022-10-18T00:15:57.674Z,17.83
2022-10-18T00:18:25.828Z,17.03
2022-10-18T00:21:02.145Z,17.70
2022-10-18T00:23:31.701Z,17.77
2022-10-18T00:26:04.935Z,16.93
2022-10-18T00:28:33.859Z,17.13
2022-10-18T00:31:13.441Z,17.03
2022-10-18T00:33:42.281Z,16.23
2022-10-18T00:36:10.902Z,17.27
2022-10-18T00:38:39.574Z,16.93
2022-10-18T00:41:09.968Z,16.77
2022-10-18T00:43:53.646Z,17.40
2022-10-18T00:46:23.765Z,17.00
2022-10-18T00:51:22.315Z,16.47
2022-10-18T00:53:50.805Z,17.20
2022-10-18T00:56:19.305Z,16.97
2022-10-18T00:58:48.815Z,16.30
2022-10-18T01:01:17.121Z,15.13
2022-10-18T01:03:46.744Z,15.73
2022-10-18T01:06:14.824Z,16.37
2022-10-18T01:08:51.441Z,16.33
2022-10-18T01:11:35.857Z,16.00
2022-10-18T01:14:14.233Z,15.37
2022-10-18T01:16:48.608Z,15.20
2022-10-18T01:19:42.901Z,15.97
2022-10-18T01:22:18.460Z,16.10
2022-10-18T01:25:25.207Z,14.77
2022-10-18T01:28:00.191Z,15.03
2022-10-18T01:30:41.083Z,15.83
2022-10-18T01:33:18.373Z,16.73
2022-10-18T01:35:51.527Z,15.13
2022-10-18T01:38:21.865Z,16.27
2022-10-18T01:40:52.197Z,15.47
2022-10-18T01:43:22.703Z,14.73
2022-10-18T01:45:55.941Z,16.27
2022-10-18T01:48:24.926Z,17.03
2022-10-18T01:50:53.899Z,16.07
2022-10-18T01:53:27.330Z,16.03
2022-10-18T01:56:25.297Z,15.63
2022-10-18T01:59:07.029Z,17.03
2022-10-18T02:01:44.457Z,16.73
2022-10-18T02:04:23.476Z,16.90
2022-10-18T02:06:56.596Z,17.07
2022-10-18T02:09:32.773Z,17.57
2022-10-18T02:12:03.206Z,17.53
2022-10-18T02:14:33.214Z,18.10
2022-10-18T02:17:05.720Z,16.97
2022-10-18T02:19:39.682Z,16.13
2022-10-18T02:22:09.343Z,15.57
2022-10-18T02:24:42.809Z,17.10
2022-10-18T02:27:11.315Z,17.03
2022-10-18T02:29:40.593Z,16.63
2022-10-18T02:32:16.837Z,17.53
2022-10-18T02:34:48.754Z,16.97
2022-10-18T02:37:17.394Z,16.80
2022-10-18T02:39:49.262Z,16.27
2022-10-18T02:42:17.787Z,15.33
2022-10-18T02:44:45.913Z,15.20
2022-10-18T02:47:15.568Z,16.80
2022-10-18T02:49:43.630Z,14.90
2022-10-18T02:52:11.736Z,15.53
2022-10-18T02:54:39.884Z,16.30
2022-10-18T02:57:08.545Z,15.73
2022-10-18T02:59:36.631Z,14.00
2022-10-18T03:02:04.702Z,15.33
2022-10-18T03:04:34.247Z,14.37
2022-10-18T03:07:02.357Z,14.50
2022-10-18T03:09:30.452Z,13.67
2022-10-18T03:11:58.644Z,14.27
2022-10-18T03:14:26.827Z,13.53
2022-10-18T03:16:54.969Z,14.10
2022-10-18T03:19:23.509Z,13.70
2022-10-18T03:21:53.135Z,13.70
2022-10-18T03:24:21.234Z,13.93
2022-10-18T03:26:49.321Z,13.23
2022-10-18T03:29:17.415Z,12.73
2022-10-18T03:31:45.525Z,13.60
2022-10-18T03:34:13.630Z,13.50
2022-10-18T03:36:41.952Z,13.60
2022-10-18T03:39:12.752Z,14.77
2022-10-18T03:41:40.909Z,14.17
2022-10-18T03:44:09.154Z,13.47
2022-10-18T03:46:37.228Z,13.70
2022-10-18T03:49:05.483Z,14.13
2022-10-18T03:51:33.548Z,13.67
2022-10-18T03:54:01.616Z,14.47
2022-10-18T03:56:31.068Z,13.73
2022-10-18T03:58:59.178Z,13.97
2022-10-18T04:01:27.379Z,13.47
2022-10-18T04:03:55.539Z,14.27
2022-10-18T04:06:23.634Z,13.10
2022-10-18T04:08:51.692Z,13.47
2022-10-18T04:11:19.825Z,14.37
2022-10-18T04:13:50.321Z,14.17
2022-10-18T04:16:18.392Z,14.13
2022-10-18T04:18:46.488Z,15.40
2022-10-18T04:21:14.659Z,16.53
2022-10-18T04:23:42.820Z,15.70
2022-10-18T04:26:11.036Z,14.17
2022-10-18T04:28:40.245Z,13.90
2022-10-18T04:31:10.463Z,13.83
2022-10-18T04:33:38.852Z,14.20
2022-10-18T04:36:07.233Z,14.57
2022-10-18T04:38:35.586Z,14.57
2022-10-18T04:41:04.262Z,15.43
2022-10-18T04:43:32.448Z,14.47
2022-10-18T04:46:00.617Z,15.47
2022-10-18T04:48:30.105Z,13.23
2022-10-18T04:50:58.200Z,12.83
2022-10-18T04:53:26.393Z,12.63
2022-10-18T04:55:54.464Z,14.07
2022-10-18T04:58:22.735Z,13.40
2022-10-18T05:00:51.365Z,14.50
2022-10-18T05:03:19.704Z,13.20
2022-10-18T05:06:01.415Z,12.63
2022-10-18T05:08:30.578Z,13.40
2022-10-18T05:10:58.889Z,14.17
2022-10-18T05:13:27.072Z,12.80
2022-10-18T05:15:55.242Z,12.70
2022-10-18T05:18:23.347Z,13.17
2022-10-18T05:20:53.037Z,12.77
2022-10-18T05:23:21.315Z,12.37
2022-10-18T05:25:49.677Z,12.83
2022-10-18T05:31:07.425Z,11.60
2022-10-18T05:33:36.025Z,12.73
2022-10-18T05:36:05.895Z,11.27
2022-10-18T05:38:34.005Z,11.53
2022-10-18T05:41:05.497Z,10.80
2022-10-18T05:43:33.852Z,12.63
2022-10-18T05:46:02.154Z,11.00
2022-10-18T05:48:30.284Z,11.93
2022-10-18T05:51:00.132Z,11.10
2022-10-18T05:53:38.076Z,10.67
2022-10-18T05:56:07.699Z,11.33
2022-10-18T05:58:36.242Z,11.63
2022-10-18T06:01:05.725Z,12.23
2022-10-18T06:03:34.214Z,13.00
2022-10-18T06:06:02.796Z,12.40
2022-10-18T06:08:32.872Z,12.43
2022-10-18T06:11:01.414Z,13.07
2022-10-18T06:13:31.252Z,12.23
2022-10-18T06:16:01.846Z,12.57
2022-10-18T06:18:30.147Z,12.60
2022-10-18T06:20:59.505Z,12.97
2022-10-18T06:23:28.329Z,11.23
2022-10-18T06:26:01.153Z,11.53
2022-10-18T06:28:29.676Z,11.40
2022-10-18T06:30:58.583Z,11.80
2022-10-18T06:33:26.845Z,10.90
2022-10-18T06:36:00.328Z,11.00
2022-10-18T06:38:29.812Z,10.83
2022-10-18T06:40:58.868Z,10.33
2022-10-18T06:43:28.810Z,10.97
2022-10-18T06:45:57.281Z,10.70
2022-10-18T06:48:25.947Z,10.70
2022-10-18T06:50:56.863Z,10.60
2022-10-18T06:53:25.017Z,9.87
2022-10-18T06:55:53.225Z,9.80
2022-10-18T06:58:21.323Z,9.63
2022-10-18T07:00:50.817Z,9.73
2022-10-18T07:03:18.948Z,9.33
2022-10-18T07:05:47.046Z,9.40
2022-10-18T07:08:15.383Z,9.20
2022-10-18T07:10:43.519Z,8.70
2022-10-18T07:13:31.612Z,8.77
2022-10-18T07:16:06.739Z,9.17
2022-10-18T07:18:35.745Z,8.73
2022-10-18T07:21:04.929Z,10.23
2022-10-18T07:23:34.998Z,11.63
2022-10-18T07:26:04.399Z,10.70
2022-10-18T07:28:32.578Z,10.00
2022-10-18T07:31:08.014Z,9.73
2022-10-18T07:33:37.920Z,10.53
2022-10-18T07:36:08.060Z,8.50
2022-10-18T07:38:36.620Z,8.90
2022-10-18T07:41:07.630Z,9.10
2022-10-18T07:43:36.247Z,9.57
2022-10-18T07:46:06.867Z,10.13
2022-10-18T07:48:35.043Z,10.63
2022-10-18T07:51:03.273Z,12.73
2022-10-18T07:53:31.786Z,12.80
2022-10-18T07:56:02.329Z,12.37
2022-10-18T07:58:33.383Z,10.83
2022-10-18T08:01:04.521Z,10.03
2022-10-18T08:03:34.285Z,10.50
2022-10-18T08:06:03.166Z,10.20
2022-10-18T08:08:31.576Z,11.63
2022-10-18T08:11:04.081Z,11.03
2022-10-18T08:13:32.364Z,11.90
2022-10-18T08:16:04.968Z,12.50
2022-10-18T08:18:34.979Z,13.00
2022-10-18T08:21:03.792Z,12.00
2022-10-18T08:23:32.122Z,12.30
2022-10-18T08:26:02.770Z,14.97
2022-10-18T08:28:30.900Z,17.03
2022-10-18T08:30:59.070Z,18.83
2022-10-18T08:33:27.152Z,17.20
2022-10-18T08:36:00.381Z,18.43
2022-10-18T08:38:31.721Z,17.33
2022-10-18T08:41:01.672Z,17.53
2022-10-18T08:43:39.717Z,20.77
2022-10-18T08:46:12.667Z,21.60
2022-10-18T08:48:44.449Z,21.10
2022-10-18T08:51:28.849Z,20.00
2022-10-18T08:54:05.089Z,20.77
2022-10-18T08:56:34.529Z,19.97
2022-10-18T08:59:04.496Z,21.23
2022-10-18T09:01:42.507Z,23.53
2022-10-18T09:04:40.797Z,23.87
2022-10-18T09:07:42.869Z,21.10
2022-10-18T09:10:23.589Z,21.70
2022-10-18T09:13:12.536Z,24.83
2022-10-18T09:15:46.724Z,23.87
2022-10-18T09:18:28.931Z,21.30
2022-10-18T09:20:59.836Z,21.97
2022-10-18T09:23:41.501Z,20.87
2022-10-18T09:26:16.264Z,26.20
2022-10-18T09:28:56.863Z,24.80
2022-10-18T09:31:32.345Z,23.63
2022-10-18T09:34:04.956Z,22.10
2022-10-18T09:36:37.134Z,23.47
2022-10-18T09:39:13.023Z,25.33
2022-10-18T09:41:47.549Z,21.87
2022-10-18T09:44:22.216Z,23.93
2022-10-18T09:46:54.491Z,24.03
2022-10-18T09:49:26.674Z,21.87
2022-10-18T09:51:55.509Z,22.30
2022-10-18T09:54:32.982Z,23.87
2022-10-18T09:57:05.805Z,20.97
2022-10-18T09:59:43.178Z,19.80
2022-10-18T10:02:15.101Z,21.27
2022-10-18T10:04:43.443Z,21.97
2022-10-18T10:07:15.385Z,22.10
2022-10-18T10:09:47.318Z,21.63
2022-10-18T10:12:31.951Z,21.63
2022-10-18T10:15:14.757Z,20.63
2022-10-18T10:17:44.634Z,24.30
2022-10-18T10:20:20.046Z,23.37
2022-10-18T10:22:49.401Z,24.13
2022-10-18T10:25:35.244Z,24.30
2022-10-18T10:28:05.895Z,25.13
2022-10-18T10:30:36.021Z,28.80
2022-10-18T10:33:05.022Z,26.90
2022-10-18T10:35:52.990Z,28.83
2022-10-18T10:38:25.985Z,28.10
2022-10-18T10:40:55.611Z,27.57
2022-10-18T10:43:43.302Z,30.07
2022-10-18T10:46:13.312Z,27.60
2022-10-18T10:49:03.264Z,26.83
2022-10-18T10:51:42.136Z,28.33
2022-10-18T10:54:15.713Z,28.80
2022-10-18T10:56:58.017Z,28.53
2022-10-18T10:59:29.095Z,30.27
2022-10-18T11:02:21.368Z,28.87
2022-10-18T11:04:50.715Z,28.77
2022-10-18T11:07:25.804Z,28.70
2022-10-18T11:10:02.285Z,29.43
2022-10-18T11:12:35.754Z,30.93
2022-10-18T11:15:21.749Z,28.67
2022-10-18T11:18:03.679Z,28.50
2022-10-18T11:20:36.535Z,27.57
2022-10-18T11:23:08.210Z,29.10
2022-10-18T11:25:55.304Z,28.83
2022-10-18T11:28:34.981Z,26.73
2022-10-18T11:31:16.399Z,28.03
2022-10-18T11:34:08.723Z,27.27
2022-10-18T11:36:50.462Z,27.83
2022-10-18T11:39:32.747Z,26.37
2022-10-18T11:42:08.737Z,23.97
2022-10-18T11:44:46.069Z,25.13
2022-10-18T11:47:22.192Z,28.13
2022-10-18T11:50:01.618Z,25.43
2022-10-18T11:52:38.879Z,24.30
2022-10-18T11:55:19.817Z,24.20
2022-10-18T11:57:52.569Z,25.30
2022-10-18T12:00:29.851Z,27.10
2022-10-18T12:03:23.633Z,25.53
2022-10-18T12:05:53.695Z,25.50
2022-10-18T12:08:29.261Z,24.60
2022-10-18T12:11:05.467Z,25.00
2022-10-18T12:13:40.493Z,25.93
2022-10-18T12:16:11.819Z,26.07
2022-10-18T12:18:55.979Z,25.53
2022-10-18T12:21:26.601Z,28.80
2022-10-18T12:23:59.505Z,27.47
2022-10-18T12:26:29.825Z,26.50
2022-10-18T12:29:22.660Z,26.90
2022-10-18T12:31:54.757Z,24.40
2022-10-18T12:34:34.729Z,25.53
2022-10-18T12:37:32.449Z,25.20
2022-10-18T12:40:11.174Z,26.67
2022-10-18T12:42:46.655Z,25.90
2022-10-18T12:45:36.612Z,27.43
2022-10-18T12:48:08.839Z,24.47
2022-10-18T12:50:39.306Z,25.47
2022-10-18T12:53:21.360Z,25.73
2022-10-18T12:55:51.951Z,24.47
2022-10-18T12:58:26.443Z,24.93
2022-10-18T13:01:06.835Z,24.17
2022-10-18T13:03:58.703Z,23.87
2022-10-18T13:06:26.962Z,23.97
2022-10-18T13:09:18.558Z,24.37
2022-10-18T13:11:46.753Z,23.83
2022-10-18T13:14:26.200Z,24.50
2022-10-18T13:17:00.545Z,24.10
2022-10-18T13:19:39.524Z,23.73
2022-10-18T13:22:36.209Z,26.00
2022-10-18T13:25:15.618Z,25.30
2022-10-18T13:27:49.357Z,23.37
2022-10-18T13:30:32.659Z,24.17
2022-10-18T13:33:15.389Z,23.50
2022-10-18T13:35:55.099Z,23.73
2022-10-18T13:38:48.141Z,24.40
2022-10-18T13:41:18.897Z,24.47
2022-10-18T13:43:59.419Z,23.50
2022-10-18T13:47:18.853Z,24.27
2022-10-18T13:50:02.980Z,24.27
2022-10-18T13:52:42.906Z,24.07
2022-10-18T13:55:38.089Z,24.67
2022-10-18T13:58:15.423Z,23.10
2022-10-18T14:00:56.850Z,23.43
2022-10-18T14:03:57.634Z,24.27
2022-10-18T14:06:26.663Z,23.00
2022-10-18T14:09:09.369Z,26.13
2022-10-18T14:11:50.797Z,26.73
2022-10-18T14:14:26.369Z,30.83
2022-10-18T14:17:02.030Z,30.53
2022-10-18T14:19:35.540Z,24.83
2022-10-18T14:22:12.391Z,25.20
2022-10-18T14:24:46.006Z,23.60
2022-10-18T14:27:18.472Z,20.83
2022-10-18T14:29:47.228Z,22.10
2022-10-18T14:32:26.506Z,23.00
2022-10-18T14:35:09.198Z,23.63
2022-10-18T14:37:43.142Z,23.40
2022-10-18T14:40:28.101Z,22.00
2022-10-18T14:42:56.317Z,22.17
2022-10-18T14:45:25.098Z,22.63
2022-10-18T14:47:53.226Z,20.57
2022-10-18T14:50:30.492Z,22.83
2022-10-18T14:52:59.078Z,21.30
2022-10-18T14:55:29.163Z,21.17
2022-10-18T14:57:58.414Z,21.23
2022-10-18T15:00:30.747Z,21.30
2022-10-18T15:02:59.048Z,22.27
2022-10-18T15:05:27.388Z,22.20
2022-10-18T15:07:56.945Z,22.13
2022-10-18T15:10:29.476Z,21.07
2022-10-18T15:13:16.444Z,22.20
2022-10-18T15:15:45.593Z,22.53
2022-10-18T15:18:21.968Z,22.23
2022-10-18T15:21:19.546Z,20.37
2022-10-18T15:23:47.721Z,21.30
2022-10-18T15:26:22.602Z,23.13
2022-10-18T15:28:53.710Z,22.40
2022-10-18T15:31:26.283Z,40.60
2022-10-18T15:33:56.388Z,50.20
2022-10-18T15:36:31.644Z,23.37
2022-10-18T15:39:15.825Z,19.73
2022-10-18T15:41:50.354Z,20.63
2022-10-18T15:44:26.262Z,42.83
2022-10-18T15:46:55.749Z,24.60
2022-10-18T15:49:58.288Z,22.07
2022-10-18T15:52:36.641Z,20.60
2022-10-18T15:55:21.218Z,19.90
2022-10-18T15:57:51.176Z,19.37
2022-10-18T16:00:21.589Z,20.13
2022-10-18T16:02:49.980Z,19.60
2022-10-18T16:05:18.539Z,21.10
2022-10-18T16:07:46.878Z,20.43
2022-10-18T16:10:15.737Z,19.97
2022-10-18T16:12:44.142Z,19.40
2022-10-18T16:15:14.030Z,20.03
2022-10-18T16:17:42.370Z,19.63
2022-10-18T16:20:17.625Z,19.40
2022-10-18T16:22:45.998Z,17.67
2022-10-18T16:25:14.315Z,18.93
2022-10-18T16:27:42.701Z,18.67
2022-10-18T16:30:15.089Z,19.33
2022-10-18T16:32:43.923Z,18.27
2022-10-18T16:35:12.571Z,18.73
2022-10-18T16:37:41.182Z,84.37
2022-10-18T16:40:22.036Z,139.77
2022-10-18T16:42:50.384Z,81.50
2022-10-18T16:45:20.225Z,45.67
2022-10-18T16:47:48.601Z,23.17
2022-10-18T16:50:18.250Z,20.77
2022-10-18T16:52:46.585Z,18.73
2022-10-18T16:55:21.537Z,17.63
2022-10-18T16:57:51.476Z,18.33
2022-10-18T17:00:22.769Z,18.60
2022-10-18T17:02:51.521Z,19.20
2022-10-18T17:05:20.347Z,18.20
2022-10-18T17:07:48.883Z,19.03
2022-10-18T17:10:18.129Z,18.13
2022-10-18T17:12:46.573Z,17.37
2022-10-18T17:15:15.144Z,18.87
2022-10-18T17:17:45.088Z,19.03
2022-10-18T17:20:18.199Z,18.13
2022-10-18T17:22:46.565Z,19.37
2022-10-18T17:25:14.968Z,19.17
2022-10-18T17:27:43.474Z,19.27
2022-10-18T17:30:12.925Z,20.13
2022-10-18T17:32:43.922Z,20.70
2022-10-18T17:35:14.115Z,20.17
2022-10-18T17:37:45.410Z,20.50
2022-10-18T17:40:14.483Z,20.47
2022-10-18T17:42:42.861Z,21.13
2022-10-18T17:45:12.283Z,23.07
2022-10-18T17:47:40.646Z,21.60
2022-10-18T17:50:09.254Z,31.37
2022-10-18T17:55:11.857Z,20.30
2022-10-18T17:57:40.264Z,20.50
2022-10-18T18:00:10.647Z,21.00
2022-10-18T18:02:41.760Z,19.43
2022-10-18T18:05:10.752Z,20.00
2022-10-18T18:07:40.508Z,19.80
2022-10-18T18:10:09.234Z,20.07
2022-10-18T18:12:37.652Z,19.63
2022-10-18T18:15:06.280Z,19.90
2022-10-18T18:17:52.574Z,20.17
2022-10-18T18:20:24.442Z,19.97
2022-10-18T18:22:54.566Z,19.63
2022-10-18T18:25:23.091Z,20.33
2022-10-18T18:27:51.485Z,19.30
2022-10-18T18:30:21.760Z,19.70
2022-10-18T18:32:50.126Z,20.20
2022-10-18T18:35:18.604Z,20.07
2022-10-18T18:37:47.044Z,19.93
2022-10-18T18:40:16.864Z,18.93
2022-10-18T18:42:56.772Z,20.97
2022-10-18T18:45:33.640Z,20.07
2022-10-18T18:48:02.005Z,20.70
2022-10-18T18:50:31.834Z,21.43
2022-10-18T18:53:00.232Z,22.40
2022-10-18T18:55:30.020Z,21.40
2022-10-18T18:57:58.467Z,20.50
2022-10-18T19:00:27.122Z,20.97
2022-10-18T19:02:55.536Z,21.00
2022-10-18T19:05:25.523Z,19.53
2022-10-18T19:07:54.200Z,19.13
2022-10-18T19:10:22.563Z,21.13
2022-10-18T19:12:52.293Z,25.27
2022-10-18T19:15:20.688Z,23.27
2022-10-18T19:17:49.078Z,21.50
2022-10-18T19:20:17.755Z,21.10
2022-10-18T19:22:47.072Z,19.60
2022-10-18T19:25:15.450Z,20.37
2022-10-18T19:27:43.815Z,19.67
2022-10-18T19:30:13.954Z,19.37
2022-10-18T19:32:42.265Z,18.63
2022-10-18T19:35:10.836Z,19.03
2022-10-18T19:37:39.217Z,18.80
2022-10-18T19:40:08.338Z,19.10
2022-10-18T19:42:37.395Z,18.33
2022-10-18T19:45:06.497Z,19.73
2022-10-18T19:47:38.429Z,18.67
2022-10-18T19:50:07.167Z,19.40
2022-10-18T19:52:36.083Z,19.23
2022-10-18T19:55:04.742Z,19.13
2022-10-18T19:57:33.184Z,17.40
2022-10-18T20:00:02.685Z,17.53
2022-10-18T20:02:33.842Z,17.60
2022-10-18T20:05:04.335Z,18.77
2022-10-18T20:07:32.709Z,18.23
2022-10-18T20:10:01.044Z,18.50
2022-10-18T20:12:29.635Z,18.33
2022-10-18T20:14:58.081Z,19.30
2022-10-18T20:17:26.615Z,18.33
2022-10-18T20:19:54.979Z,19.17
2022-10-18T20:22:24.745Z,19.10
2022-10-18T20:24:53.182Z,18.70
2022-10-18T20:27:21.561Z,19.83
2022-10-18T20:29:49.870Z,19.27
2022-10-18T20:32:18.309Z,18.97
2022-10-18T20:34:46.677Z,19.63
2022-10-18T20:37:15.063Z,20.47
2022-10-18T20:39:45.560Z,19.20
2022-10-18T20:42:13.924Z,20.37
2022-10-18T20:44:43.539Z,20.53
2022-10-18T20:47:12.084Z,19.70
2022-10-18T20:49:40.433Z,18.90
2022-10-18T20:52:08.828Z,18.23
2022-10-18T20:54:37.205Z,19.90
2022-10-18T20:57:07.007Z,19.80
2022-10-18T20:59:35.882Z,19.50
2022-10-18T21:02:04.281Z,18.63
2022-10-18T21:04:32.628Z,18.00
2022-10-18T21:07:01.308Z,18.47
2022-10-18T21:09:29.672Z,18.57
2022-10-18T21:11:58.167Z,17.80
2022-10-18T21:14:27.964Z,17.50
2022-10-18T21:16:56.382Z,17.20
2022-10-18T21:19:25.789Z,16.47
2022-10-18T21:21:55.185Z,15.47
2022-10-18T21:24:24.324Z,16.27
2022-10-18T21:26:52.726Z,16.57
2022-10-18T21:29:22.814Z,16.73
2022-10-18T21:31:54.631Z,18.53
2022-10-18T21:34:23.243Z,17.77
2022-10-18T21:36:51.621Z,18.33
2022-10-18T21:39:20.937Z,17.37
2022-10-18T21:41:49.534Z,19.03
2022-10-18T21:44:18.242Z,16.83
2022-10-18T21:46:47.096Z,16.20
2022-10-18T21:49:17.083Z,18.77
2022-10-18T21:51:45.892Z,17.10
2022-10-18T21:54:15.532Z,17.77
2022-10-18T21:56:44.008Z,17.73
2022-10-18T21:59:13.107Z,17.03
2022-10-18T22:01:43.561Z,16.40
2022-10-18T22:04:20.602Z,16.20
2022-10-18T22:06:48.998Z,16.90
2022-10-18T22:09:17.440Z,16.10
2022-10-18T22:11:46.721Z,16.27
2022-10-18T22:14:15.190Z,17.53
2022-10-18T22:16:43.577Z,17.63
2022-10-18T22:19:11.967Z,16.40
2022-10-18T22:21:41.772Z,17.43
2022-10-18T22:24:12.837Z,18.20
2022-10-18T22:26:42.812Z,17.57
2022-10-18T22:29:12.872Z,17.87
2022-10-18T22:31:42.257Z,16.03
2022-10-18T22:34:12.399Z,17.07
2022-10-18T22:36:42.328Z,15.80
2022-10-18T22:39:11.324Z,17.30
2022-10-18T22:41:39.972Z,14.80
2022-10-18T22:44:09.144Z,16.07
2022-10-18T22:46:37.507Z,16.43
2022-10-18T22:49:06.116Z,16.53
2022-10-18T22:54:05.252Z,15.80
2022-10-18T22:56:33.749Z,16.23
2022-10-18T22:59:02.107Z,16.50
2022-10-18T23:01:30.458Z,16.60
2022-10-18T23:03:59.962Z,15.97
2022-10-18T23:06:29.260Z,15.77
2022-10-18T23:08:59.249Z,17.00
2022-10-18T23:11:29.259Z,15.20
2022-10-18T23:13:57.625Z,15.70
2022-10-18T23:16:26.289Z,16.50
2022-10-18T23:18:55.907Z,15.97
2022-10-18T23:21:24.975Z,14.60
2022-10-18T23:23:53.950Z,16.07
2022-10-18T23:26:23.242Z,14.90
2022-10-18T23:28:53.932Z,14.17
2022-10-18T23:31:23.386Z,16.47
2022-10-18T23:33:52.886Z,15.83
2022-10-18T23:36:23.533Z,14.53
2022-10-18T23:38:52.170Z,14.23
2022-10-18T23:41:21.001Z,13.90
2022-10-18T23:43:49.429Z,14.53
2022-10-18T23:46:19.533Z,15.03
2022-10-18T23:48:48.360Z,13.70
2022-10-18T23:51:16.791Z,14.03
2022-10-18T23:53:45.388Z,14.00
2022-10-18T23:56:14.526Z,13.43
2022-10-18T23:58:43.194Z,13.30
